Time;durP1;ratioP1;P1;durP2;ratioP2;P2;SDS_P1;SDS_P2;PMS_P1;PMS_P2;Temp;Humidity;BMP_temperature;BMP_pressure;BME280_temperature;BME280_humidity;BME280_pressure;Samples;Min_cycle;Max_cycle;Signal;HPM_P1;HPM_P2
2024/01/24 00:02:05;;;;;;;9.88;2.85;;;;;;;11.10;100.00;101229.59;5026440;28;20025;-69
2024/01/24 00:04:30;;;;;;;7.63;2.63;;;;;;;11.14;100.00;101209.59;5024131;28;20037;-69
2024/01/24 00:06:56;;;;;;;11.45;3.00;;;;;;;11.15;100.00;101216.69;5028686;28;20030;-68
2024/01/24 00:09:21;;;;;;;12.80;2.92;;;;;;;11.18;100.00;101218.31;5026993;28;20040;-68
2024/01/24 00:11:46;;;;;;;7.28;2.60;;;;;;;11.19;100.00;101237.03;5026531;28;20029;-68
2024/01/24 00:14:12;;;;;;;9.80;2.50;;;;;;;11.22;100.00;101248.56;5028299;28;20039;-67
2024/01/24 00:16:38;;;;;;;12.18;3.00;;;;;;;11.24;100.00;101244.78;5024793;28;20037;-67
2024/01/24 00:19:03;;;;;;;10.15;2.70;;;;;;;11.26;100.00;101260.81;5027119;28;20039;-67
2024/01/24 00:21:28;;;;;;;9.07;2.63;;;;;;;11.25;100.00;101246.50;5025942;28;20023;-68
2024/01/24 00:23:53;;;;;;;6.70;2.55;;;;;;;11.26;100.00;101255.44;5035226;28;20043;-68
2024/01/24 00:26:19;;;;;;;7.55;2.53;;;;;;;11.29;100.00;101247.13;5033605;28;20100;-67
2024/01/24 00:28:44;;;;;;;7.82;2.35;;;;;;;11.30;100.00;101225.53;5028020;28;20327;-67
2024/01/24 00:31:09;;;;;;;9.88;2.40;;;;;;;11.29;100.00;101239.06;5026183;28;20025;-67
2024/01/24 00:33:34;;;;;;;9.30;2.40;;;;;;;11.29;100.00;101221.09;5025434;28;20552;-67
2024/01/24 00:36:00;;;;;;;4.75;2.20;;;;;;;11.31;100.00;101211.09;5026407;28;20025;-67
2024/01/24 00:38:25;;;;;;;8.98;2.80;;;;;;;11.32;100.00;101239.72;5027953;28;20028;-67
2024/01/24 00:40:51;;;;;;;9.20;2.55;;;;;;;11.36;100.00;101232.28;5026197;28;20018;-67
2024/01/24 00:43:16;;;;;;;9.48;2.53;;;;;;;11.38;100.00;101219.59;5026075;28;20493;-67
2024/01/24 00:45:41;;;;;;;7.60;1.98;;;;;;;11.38;100.00;101214.22;5025471;28;20038;-67
2024/01/24 00:48:07;;;;;;;7.65;2.58;;;;;;;11.40;100.00;101225.72;5025844;28;20711;-67
2024/01/24 00:50:34;;;;;;;10.70;2.65;;;;;;;11.39;100.00;101210.56;5025973;28;20037;-67
2024/01/24 00:53:03;;;;;;;8.55;2.50;;;;;;;11.39;100.00;101210.56;5025751;28;20465;-67
2024/01/24 00:55:30;;;;;;;5.53;2.22;;;;;;;11.41;100.00;101216.69;5023546;28;20029;-67
2024/01/24 00:57:56;;;;;;;7.57;2.42;;;;;;;11.43;100.00;101232.72;5025636;28;20017;-67
2024/01/24 01:00:22;;;;;;;8.45;2.50;;;;;;;11.43;100.00;101230.88;5026479;28;20032;-68
2024/01/24 01:02:47;;;;;;;5.07;2.28;;;;;;;11.43;100.00;101225.50;5032358;28;20033;-68
2024/01/24 01:05:12;;;;;;;4.75;2.17;;;;;;;11.42;100.00;101231.88;5024541;28;20032;-68
2024/01/24 01:07:37;;;;;;;7.97;2.70;;;;;;;11.39;100.00;101213.25;5027623;28;20040;-67
2024/01/24 01:10:03;;;;;;;4.75;2.13;;;;;;;11.33;100.00;101206.47;5026561;28;20025;-66
2024/01/24 01:12:28;;;;;;;8.05;2.72;;;;;;;11.30;100.00;101212.09;5024409;28;20132;-68
2024/01/24 01:14:54;;;;;;;7.03;2.33;;;;;;;11.26;100.00;101212.38;5033508;28;20024;-67
2024/01/24 01:17:19;;;;;;;6.85;2.35;;;;;;;11.21;100.00;101212.69;5026358;28;20032;-67
2024/01/24 01:19:44;;;;;;;7.32;2.30;;;;;;;11.19;100.00;101215.50;5025488;28;20495;-68
2024/01/24 01:22:09;;;;;;;10.27;2.70;;;;;;;11.15;100.00;101191.63;5024084;28;20045;-66
2024/01/24 01:24:35;;;;;;;7.30;2.40;;;;;;;11.12;100.00;101190.00;5026061;28;20049;-68
2024/01/24 01:27:02;;;;;;;6.90;2.20;;;;;;;11.11;100.00;101188.31;5034377;28;20063;-68
2024/01/24 01:29:27;;;;;;;8.60;2.53;;;;;;;11.09;100.00;101197.44;5028200;28;20033;-68
2024/01/24 01:31:53;;;;;;;7.05;2.13;;;;;;;11.07;100.00;101176.03;5026420;28;20040;-68
2024/01/24 01:34:18;;;;;;;8.93;2.50;;;;;;;11.05;100.00;101172.56;5032593;28;20045;-67
2024/01/24 01:36:43;;;;;;;4.68;2.25;;;;;;;11.03;100.00;101187.97;5027085;28;20030;-67
2024/01/24 01:39:08;;;;;;;6.63;2.40;;;;;;;11.01;100.00;101189.88;5029354;28;20121;-67
2024/01/24 01:41:36;;;;;;;12.77;3.20;;;;;;;11.00;100.00;101198.94;5028626;28;20103;-68
2024/01/24 01:44:02;;;;;;;8.23;2.20;;;;;;;10.98;100.00;101212.50;5027550;28;20021;-68
2024/01/24 01:46:27;;;;;;;8.93;2.40;;;;;;;10.97;100.00;101210.75;5027338;28;20140;-67
2024/01/24 01:48:55;;;;;;;4.13;1.88;;;;;;;10.96;100.00;101208.19;5028910;28;20092;-68
2024/01/24 01:51:21;;;;;;;4.88;2.20;;;;;;;10.95;100.00;101198.38;5029313;28;20067;-68
2024/01/24 01:53:47;;;;;;;4.82;1.92;;;;;;;10.92;100.00;101212.03;5027968;28;20527;-67
2024/01/24 01:56:17;;;;;;;3.83;2.10;;;;;;;10.92;100.00;101217.44;5027242;28;20065;-68
2024/01/24 01:58:44;;;;;;;5.38;2.00;;;;;;;10.90;100.00;101209.47;5028910;28;20039;-67
2024/01/24 02:01:10;;;;;;;5.15;1.95;;;;;;;10.90;100.00;101203.25;5026640;28;20120;-68
2024/01/24 02:03:36;;;;;;;4.75;1.77;;;;;;;10.86;100.00;101202.56;5026940;28;20496;-67
2024/01/24 02:06:01;;;;;;;5.43;1.90;;;;;;;10.84;100.00;101199.13;5024775;28;20018;-66
2024/01/24 02:08:27;;;;;;;6.90;2.05;;;;;;;10.82;100.00;101183.13;5031691;28;20038;-65
2024/01/24 02:10:52;;;;;;;3.80;1.83;;;;;;;10.78;100.00;101189.66;5025116;28;20052;-66
2024/01/24 02:13:19;;;;;;;8.75;2.10;;;;;;;10.77;100.00;101201.38;5025348;28;20342;-66
2024/01/24 02:15:45;;;;;;;3.35;1.92;;;;;;;10.76;100.00;101201.47;5023904;28;20028;-66
2024/01/24 02:18:10;;;;;;;5.13;1.95;;;;;;;10.74;100.00;101204.28;5023084;28;20021;-65
2024/01/24 02:20:36;;;;;;;4.18;1.80;;;;;;;10.72;100.00;101208.03;5025095;28;20021;-66
2024/01/24 02:23:02;;;;;;;5.55;1.75;;;;;;;10.71;100.00;101187.50;5034033;28;20032;-66
2024/01/24 02:25:27;;;;;;;3.67;1.95;;;;;;;10.69;100.00;101190.31;5025100;28;20116;-65
2024/01/24 02:27:53;;;;;;;4.80;1.85;;;;;;;10.68;100.00;101188.56;5030487;28;20343;-65
2024/01/24 02:30:18;;;;;;;6.55;1.98;;;;;;;10.68;100.00;101183.19;5026876;28;20609;-66
2024/01/24 02:32:44;;;;;;;2.65;1.60;;;;;;;10.68;100.00;101193.94;5024394;28;20029;-65
2024/01/24 02:35:09;;;;;;;4.43;1.60;;;;;;;10.68;100.00;101202.00;5023741;28;20112;-67
2024/01/24 02:37:35;;;;;;;3.10;1.50;;;;;;;10.66;100.00;101190.53;5029635;28;20687;-68
2024/01/24 02:40:00;;;;;;;5.95;1.70;;;;;;;10.65;100.00;101200.38;5030082;28;20048;-67
2024/01/24 02:42:25;;;;;;;5.05;1.65;;;;;;;10.65;100.00;101213.81;5038008;28;20104;-68
2024/01/24 02:44:51;;;;;;;2.92;1.30;;;;;;;10.65;100.00;101208.44;5029323;28;20030;-68
2024/01/24 02:47:19;;;;;;;2.70;1.77;;;;;;;10.66;100.00;101217.41;5027585;28;20079;-68
2024/01/24 02:49:44;;;;;;;2.65;1.50;;;;;;;10.68;100.00;101195.78;5025992;28;20036;-68
2024/01/24 02:52:09;;;;;;;2.70;1.23;;;;;;;10.65;100.00;101205.75;5024068;28;20453;-68
2024/01/24 02:54:38;;;;;;;3.97;1.48;;;;;;;10.65;100.00;101208.44;5026820;28;20465;-68
2024/01/24 02:57:04;;;;;;;2.35;1.42;;;;;;;10.65;100.00;101197.69;5025784;28;20064;-68
2024/01/24 02:59:30;;;;;;;2.30;1.60;;;;;;;10.67;100.00;101181.47;5027090;28;20074;-67
2024/01/24 03:01:55;;;;;;;3.75;1.60;;;;;;;10.69;100.00;101175.97;5027122;28;20060;-67
2024/01/24 03:04:21;;;;;;;2.78;1.70;;;;;;;10.68;100.00;101180.50;5026284;28;20045;-68
2024/01/24 03:06:46;;;;;;;4.65;2.40;;;;;;;10.69;100.00;101195.69;5027179;28;20104;-68
2024/01/24 03:09:13;;;;;;;6.32;2.33;;;;;;;10.71;100.00;101185.66;5028715;28;20460;-68
2024/01/24 03:11:38;;;;;;;4.68;2.20;;;;;;;10.73;100.00;101166.75;5035116;28;20057;-68
2024/01/24 03:14:04;;;;;;;4.63;2.45;;;;;;;10.74;100.00;101179.22;5028253;28;20492;-68
2024/01/24 03:16:29;;;;;;;4.40;2.35;;;;;;;10.75;100.00;101176.44;5026760;28;20025;-68
2024/01/24 03:18:54;;;;;;;6.55;2.33;;;;;;;10.76;100.00;101194.28;5026804;28;20036;-68
2024/01/24 03:21:20;;;;;;;5.30;2.30;;;;;;;10.78;100.00;101205.78;5027505;28;20568;-68
2024/01/24 03:23:45;;;;;;;5.90;2.33;;;;;;;10.77;100.00;101185.25;5026049;28;20268;-68
2024/01/24 03:26:13;;;;;;;4.53;2.22;;;;;;;10.77;100.00;101201.38;5026663;28;20546;-68
2024/01/24 03:28:38;;;;;;;5.10;1.40;;;;;;;10.77;100.00;101220.19;5028816;28;20046;-68
2024/01/24 03:31:04;;;;;;;4.60;1.88;;;;;;;10.77;100.00;101219.34;5034812;28;20107;-67
2024/01/24 03:33:29;;;;;;;9.18;2.10;;;;;;;10.77;100.00;101239.00;5027767;28;20103;-67
2024/01/24 03:35:54;;;;;;;4.85;1.85;;;;;;;10.79;100.00;101264.00;5029269;28;20030;-68
2024/01/24 03:38:20;;;;;;;8.80;2.03;;;;;;;10.81;100.00;101247.75;5039628;28;20025;-67
2024/01/24 03:40:46;;;;;;;4.88;1.73;;;;;;;10.81;100.00;101267.41;5033015;28;20029;-67
2024/01/24 03:43:12;;;;;;;5.75;2.10;;;;;;;10.83;100.00;101270.88;5028910;28;20440;-67
2024/01/24 03:45:38;;;;;;;10.60;2.50;;;;;;;10.87;100.00;101260.78;5026967;28;20036;-67
2024/01/24 03:48:04;;;;;;;13.30;2.38;;;;;;;10.89;100.00;101287.56;5026773;28;20339;-66
2024/01/24 03:50:29;;;;;;;6.45;2.35;;;;;;;10.89;100.00;101287.56;5029457;28;20036;-68
2024/01/24 03:52:55;;;;;;;10.75;2.60;;;;;;;10.91;100.00;101291.88;5027831;28;20048;-66
2024/01/24 03:55:20;;;;;;;14.43;3.47;;;;;;;10.95;100.00;101292.50;5032557;28;20028;-67
2024/01/24 03:57:45;;;;;;;10.60;2.47;;;;;;;10.96;100.00;101291.56;5029530;28;20499;-67
2024/01/24 04:00:11;;;;;;;11.85;2.88;;;;;;;10.96;100.00;101288.88;5028369;28;20034;-67
2024/01/24 04:02:37;;;;;;;14.48;3.42;;;;;;;10.93;100.00;101276.47;5026879;28;20511;-66
2024/01/24 04:05:02;;;;;;;14.30;3.60;;;;;;;10.94;100.00;101307.78;5024035;28;20120;-67
2024/01/24 04:07:27;;;;;;;15.60;3.35;;;;;;;10.94;100.00;101283.59;5030740;28;20033;-66
2024/01/24 04:09:53;;;;;;;18.88;3.97;;;;;;;10.94;100.00;101285.44;5027097;28;20037;-67
2024/01/24 04:12:18;;;;;;;15.43;3.15;;;;;;;10.95;100.00;101289.81;5033533;28;20400;-67
2024/01/24 04:14:43;;;;;;;15.52;3.08;;;;;;;10.94;100.00;101280.06;5026011;28;20067;-68
2024/01/24 04:17:09;;;;;;;13.43;3.50;;;;;;;10.96;100.00;101296.94;5026354;28;20112;-67
2024/01/24 04:19:34;;;;;;;17.00;3.33;;;;;;;10.95;100.00;101288.00;5026006;28;20065;-67
2024/01/24 04:21:59;;;;;;;18.42;3.90;;;;;;;10.92;100.00;101282.84;5025915;28;20029;-68
2024/01/24 04:24:25;;;;;;;21.08;3.53;;;;;;;10.88;100.00;101289.38;5025216;28;20487;-67
2024/01/24 04:26:50;;;;;;;19.20;3.50;;;;;;;10.86;100.00;101294.00;5038683;28;20052;-67
2024/01/24 04:29:16;;;;;;;21.15;3.85;;;;;;;10.86;100.00;101310.13;5026063;28;20076;-67
2024/01/24 04:31:42;;;;;;;22.60;4.32;;;;;;;10.86;100.00;101309.28;5026999;28;20038;-68
2024/01/24 04:34:07;;;;;;;14.02;3.47;;;;;;;10.83;100.00;101324.66;5024469;28;20039;-67
2024/01/24 04:36:33;;;;;;;24.20;4.63;;;;;;;10.82;100.00;101322.94;5024237;28;20060;-67
2024/01/24 04:38:59;;;;;;;21.20;3.88;;;;;;;10.80;100.00;101351.72;5022422;28;20029;-68
2024/01/24 04:41:24;;;;;;;16.25;3.90;;;;;;;10.76;100.00;101344.84;5024799;28;20484;-67
2024/01/24 04:43:50;;;;;;;20.40;4.70;;;;;;;10.74;100.00;101327.94;5025861;28;20022;-66
2024/01/24 04:46:15;;;;;;;27.27;5.47;;;;;;;10.72;100.00;101345.13;5026452;28;20032;-67
2024/01/24 04:48:43;;;;;;;20.90;4.35;;;;;;;10.68;100.00;101338.25;5025087;28;20087;-67
2024/01/24 04:51:08;;;;;;;21.60;4.93;;;;;;;10.65;100.00;101333.94;5026536;28;20112;-67
2024/01/24 04:53:34;;;;;;;29.00;5.13;;;;;;;10.64;100.00;101349.22;5025268;28;20116;-67
2024/01/24 04:55:59;;;;;;;22.80;4.85;;;;;;;10.63;100.00;101349.28;5026522;28;20088;-67
2024/01/24 04:58:24;;;;;;;23.00;4.30;;;;;;;10.62;100.00;101343.06;5025428;28;20240;-67
2024/01/24 05:00:49;;;;;;;26.35;5.38;;;;;;;10.63;100.00;101341.22;5025731;28;20120;-67
2024/01/24 05:03:15;;;;;;;30.02;5.22;;;;;;;10.60;100.00;101333.38;5025777;28;20423;-67
2024/01/24 05:05:40;;;;;;;26.88;5.90;;;;;;;10.60;100.00;101336.06;5023306;28;20037;-67
2024/01/24 05:08:06;;;;;;;19.60;4.85;;;;;;;10.60;100.00;101322.63;5025241;28;20043;-67
2024/01/24 05:10:31;;;;;;;26.13;5.20;;;;;;;10.59;100.00;101334.34;5031091;28;20061;-68
2024/01/24 05:12:57;;;;;;;26.48;6.07;;;;;;;10.58;100.00;101348.75;5028582;28;20116;-67
2024/01/24 05:15:22;;;;;;;27.73;5.50;;;;;;;10.57;100.00;101365.81;5031882;28;20389;-67
2024/01/24 05:17:47;;;;;;;23.85;6.18;;;;;;;10.58;100.00;101397.13;5026113;28;20298;-67
2024/01/24 05:20:13;;;;;;;26.60;5.85;;;;;;;10.60;100.00;101408.63;5024798;28;20336;-67
2024/01/24 05:22:39;;;;;;;34.83;6.82;;;;;;;10.62;100.00;101401.34;5025734;28;20029;-67
2024/01/24 05:25:05;;;;;;;25.75;5.38;;;;;;;10.64;100.00;101392.22;5028989;28;20033;-67
2024/01/24 05:27:30;;;;;;;28.23;5.70;;;;;;;10.65;100.00;101393.06;5026088;28;20033;-67
2024/01/24 05:29:56;;;;;;;27.92;6.63;;;;;;;10.64;100.00;101394.91;5029137;28;20057;-67
2024/01/24 05:32:21;;;;;;;26.25;6.65;;;;;;;10.63;100.00;101381.53;5025890;28;20025;-67
2024/01/24 05:34:46;;;;;;;34.83;7.13;;;;;;;10.63;100.00;101394.97;5022411;28;20043;-67
2024/01/24 05:37:11;;;;;;;31.67;5.93;;;;;;;10.63;100.00;101405.75;5023638;28;20512;-67
2024/01/24 05:39:37;;;;;;;21.33;5.47;;;;;;;10.63;100.00;101394.97;5026638;28;20444;-67
2024/01/24 05:42:02;;;;;;;24.98;5.60;;;;;;;10.62;100.00;101399.50;5032798;28;20404;-67
2024/01/24 05:44:27;;;;;;;31.67;6.78;;;;;;;10.62;100.00;101414.78;5022653;28;20033;-67
2024/01/24 05:46:53;;;;;;;25.42;6.10;;;;;;;10.59;100.00;101404.22;5024828;28;20043;-67
2024/01/24 05:49:18;;;;;;;28.95;6.32;;;;;;;10.56;100.00;101420.56;5025019;28;20044;-67
2024/01/24 05:51:43;;;;;;;26.25;6.82;;;;;;;10.51;100.00;101422.66;5027283;28;20025;-68
2024/01/24 05:54:09;;;;;;;29.15;6.32;;;;;;;10.49;100.00;101429.00;5024842;28;20083;-67
2024/01/24 05:56:35;;;;;;;26.30;5.90;;;;;;;10.49;100.00;101431.69;5024523;28;20032;-67
2024/01/24 05:59:00;;;;;;;25.58;6.50;;;;;;;10.49;100.00;101429.00;5023404;28;20020;-67
2024/01/24 06:01:26;;;;;;;26.90;6.45;;;;;;;10.48;100.00;101440.72;5033639;28;20028;-67
2024/01/24 06:03:51;;;;;;;28.20;6.60;;;;;;;10.47;100.00;101440.81;5022490;28;20029;-67
2024/01/24 06:06:16;;;;;;;28.17;6.93;;;;;;;10.45;100.00;101427.50;5025191;28;20116;-66
2024/01/24 06:08:44;;;;;;;30.23;7.25;;;;;;;10.44;100.00;101439.19;5023460;28;20040;-67
2024/01/24 06:11:09;;;;;;;28.85;6.70;;;;;;;10.44;100.00;101449.94;5026022;28;20112;-67
2024/01/24 06:13:35;;;;;;;32.58;7.68;;;;;;;10.45;100.00;101446.28;5025886;28;20409;-67
2024/01/24 06:16:00;;;;;;;24.77;6.18;;;;;;;10.43;100.00;101445.50;5022642;28;20028;-67
2024/01/24 06:18:25;;;;;;;29.60;7.13;;;;;;;10.42;100.00;101454.53;5021767;28;20033;-67
2024/01/24 06:20:50;;;;;;;34.00;7.78;;;;;;;10.41;100.00;101471.63;5028704;28;20033;-67
2024/01/24 06:23:16;;;;;;;29.20;7.10;;;;;;;10.40;100.00;101486.00;5032560;28;20034;-67
2024/01/24 06:25:42;;;;;;;31.50;6.38;;;;;;;10.41;100.00;101505.69;5024895;28;20682;-67
2024/01/24 06:28:07;;;;;;;35.65;7.63;;;;;;;10.40;100.00;101491.38;5024071;28;20048;-68
2024/01/24 06:30:32;;;;;;;29.60;7.93;;;;;;;10.37;100.00;101513.09;5026118;28;20033;-68
2024/01/24 06:32:58;;;;;;;28.92;8.13;;;;;;;10.36;100.00;101524.78;5023906;28;20036;-67
2024/01/24 06:35:23;;;;;;;32.03;7.60;;;;;;;10.35;100.00;101528.41;5023572;28;20064;-67
2024/01/24 06:37:49;;;;;;;31.65;7.88;;;;;;;10.32;100.00;101524.09;5023441;28;20018;-67
2024/01/24 06:40:15;;;;;;;30.80;7.45;;;;;;;10.32;100.00;101542.00;5023125;28;20072;-67
2024/01/24 06:42:41;;;;;;;30.92;6.97;;;;;;;10.30;100.00;101565.44;5025661;28;20112;-67
2024/01/24 06:45:09;;;;;;;33.65;7.35;;;;;;;10.30;100.00;101554.69;5024638;28;20068;-66
2024/01/24 06:47:35;;;;;;;36.90;8.73;;;;;;;10.29;100.00;101564.56;5024150;28;20420;-66
2024/01/24 06:50:00;;;;;;;35.10;7.95;;;;;;;10.30;100.00;101560.06;5023679;28;20083;-66
2024/01/24 06:52:26;;;;;;;33.25;8.23;;;;;;;10.29;100.00;101598.63;5023299;28;20473;-67
2024/01/24 06:54:52;;;;;;;31.50;8.30;;;;;;;10.25;100.00;101616.75;5023273;28;20245;-67
2024/01/24 06:57:17;;;;;;;32.95;8.70;;;;;;;10.22;100.00;101640.25;5024058;28;20040;-66
2024/01/24 06:59:43;;;;;;;34.15;7.88;;;;;;;10.19;100.00;101633.25;5023768;28;20091;-67
2024/01/24 07:02:09;;;;;;;28.88;7.57;;;;;;;10.15;100.00;101621.81;5024765;28;20027;-66
2024/01/24 07:04:34;;;;;;;32.63;7.60;;;;;;;10.13;100.00;101623.72;5023477;28;20029;-67
2024/01/24 07:07:00;;;;;;;27.58;7.32;;;;;;;10.11;100.00;101592.53;5023436;28;20053;-67
2024/01/24 07:09:25;;;;;;;30.00;7.57;;;;;;;10.05;100.00;101600.97;5029788;28;20040;-67
2024/01/24 07:11:51;;;;;;;33.75;8.27;;;;;;;9.99;100.00;101621.00;5040871;28;20040;-67
2024/01/24 07:14:16;;;;;;;36.35;8.50;;;;;;;9.94;100.00;101620.38;5032392;28;20075;-67
2024/01/24 07:16:44;;;;;;;32.50;8.43;;;;;;;9.91;100.00;101608.03;5033290;28;20035;-67
2024/01/24 07:19:09;;;;;;;31.80;7.47;;;;;;;9.89;100.00;101611.75;5030435;28;20060;-67
2024/01/24 07:21:34;;;;;;;39.47;8.55;;;;;;;9.87;100.00;101622.56;5030253;28;20085;-67
2024/01/24 07:24:00;;;;;;;34.92;7.90;;;;;;;9.82;100.00;101637.22;5027918;28;20025;-67
2024/01/24 07:26:25;;;;;;;35.15;8.65;;;;;;;9.77;100.00;101632.97;5029329;28;20036;-67
2024/01/24 07:28:50;;;;;;;35.10;8.65;;;;;;;9.75;100.00;101639.38;5034560;28;20456;-68
2024/01/24 07:31:17;;;;;;;38.33;8.13;;;;;;;9.73;100.00;101647.50;5030129;28;20029;-67
2024/01/24 07:33:42;;;;;;;30.55;7.72;;;;;;;9.69;100.00;101648.63;5028646;28;21530;-67
2024/01/24 07:36:08;;;;;;;38.60;9.02;;;;;;;9.67;100.00;101665.78;5031449;28;20025;-67
2024/01/24 07:38:33;;;;;;;30.95;8.02;;;;;;;9.66;100.00;101650.63;5032345;28;20120;-68
2024/01/24 07:40:58;;;;;;;31.08;8.43;;;;;;;9.61;100.00;101672.38;5029299;28;20052;-68
2024/01/24 07:43:23;;;;;;;33.30;7.93;;;;;;;9.60;98.95;101644.69;5031908;28;20021;-67
2024/01/24 07:45:50;;;;;;;37.55;7.68;;;;;;;9.59;99.32;101650.09;5032311;28;20037;-68
2024/01/24 07:48:15;;;;;;;27.98;7.93;;;;;;;9.57;98.34;101666.28;5028744;28;20056;-67
2024/01/24 07:50:42;;;;;;;28.77;8.95;;;;;;;9.54;99.14;101660.25;5025426;28;20614;-67
2024/01/24 07:53:08;;;;;;;33.28;8.88;;;;;;;9.51;97.56;101677.38;5027144;28;20466;-67
2024/01/24 07:55:34;;;;;;;34.42;8.18;;;;;;;9.50;97.14;101693.56;5030944;28;20038;-67
2024/01/24 07:57:59;;;;;;;29.42;7.88;;;;;;;9.49;96.11;101697.19;5030818;28;20487;-67
2024/01/24 08:00:26;;;;;;;40.83;8.25;;;;;;;9.49;96.22;101702.56;5030667;28;20971;-67
2024/01/24 08:02:51;;;;;;;32.67;8.38;;;;;;;9.49;96.47;101713.28;5036200;28;20102;-67
2024/01/24 08:05:16;;;;;;;34.80;8.52;;;;;;;9.44;95.94;101711.75;5035635;28;20026;-68
2024/01/24 08:07:42;;;;;;;30.58;8.70;;;;;;;9.42;96.47;101702.91;5042223;28;20033;-67
2024/01/24 08:10:10;;;;;;;31.20;8.93;;;;;;;9.41;95.74;101703.88;5042644;28;20093;-67
2024/01/24 08:12:37;;;;;;;31.60;7.18;;;;;;;9.39;96.07;101711.13;5040629;28;20052;-67
2024/01/24 08:15:05;;;;;;;29.27;8.20;;;;;;;9.38;96.39;101711.19;5040351;28;20091;-67
2024/01/24 08:17:30;;;;;;;32.85;8.18;;;;;;;9.36;97.27;101727.38;5039838;28;20068;-68
2024/01/24 08:19:56;;;;;;;33.88;9.70;;;;;;;9.35;95.98;101725.66;5042082;28;20361;-68
2024/01/24 08:22:21;;;;;;;38.72;8.65;;;;;;;9.37;94.94;101736.28;5038549;28;20281;-68
2024/01/24 08:24:46;;;;;;;35.65;7.82;;;;;;;9.39;95.65;101735.25;5034552;28;20068;-67
2024/01/24 08:27:11;;;;;;;34.42;8.98;;;;;;;9.41;96.21;101753.97;5037754;28;20037;-68
2024/01/24 08:29:37;;;;;;;32.03;7.43;;;;;;;9.42;95.09;101740.47;5044842;28;20326;-67
2024/01/24 08:32:04;;;;;;;34.92;6.55;;;;;;;9.44;95.16;101735.91;5036838;28;20091;-68
2024/01/24 08:34:29;;;;;;;27.13;7.60;;;;;;;9.44;95.90;101730.53;5040103;28;20104;-68
2024/01/24 08:36:55;;;;;;;31.38;7.88;;;;;;;9.45;95.49;101744.81;5038828;28;20048;-68
2024/01/24 08:39:20;;;;;;;28.02;7.32;;;;;;;9.43;97.07;101752.94;5045386;28;20029;-68
2024/01/24 08:41:46;;;;;;;35.30;7.70;;;;;;;9.42;97.20;101766.44;5043769;28;20032;-68
2024/01/24 08:44:11;;;;;;;35.78;7.72;;;;;;;9.41;97.05;101787.06;5049333;28;20461;-68
2024/01/24 08:46:37;;;;;;;33.63;7.22;;;;;;;9.43;97.28;101777.09;5043549;28;20036;-68
2024/01/24 08:49:02;;;;;;;34.03;8.02;;;;;;;9.44;97.64;101773.47;5036147;28;20046;-68
2024/01/24 08:51:31;;;;;;;33.28;8.25;;;;;;;9.45;96.87;101783.22;5037479;28;20025;-67
2024/01/24 08:53:57;;;;;;;41.08;8.85;;;;;;;9.47;97.04;101793.03;5036623;28;20025;-68
2024/01/24 08:56:23;;;;;;;37.72;8.95;;;;;;;9.48;95.88;101782.19;5040755;28;20029;-68
2024/01/24 08:58:48;;;;;;;41.08;8.82;;;;;;;9.50;96.98;101774.06;5037991;28;20141;-68
2024/01/24 09:01:13;;;;;;;33.03;7.78;;;;;;;9.50;96.70;101771.38;5037472;28;20038;-67
2024/01/24 09:03:39;;;;;;;29.17;7.90;;;;;;;9.51;97.18;101799.97;5034964;28;20021;-68
2024/01/24 09:06:05;;;;;;;32.15;8.25;;;;;;;9.50;96.14;101819.69;5032400;28;20030;-67
2024/01/24 09:08:30;;;;;;;33.55;7.43;;;;;;;9.50;95.90;101817.00;5030178;28;20060;-67
2024/01/24 09:10:56;;;;;;;31.60;9.00;;;;;;;9.50;96.51;101849.19;5024873;28;20165;-67
2024/01/24 09:13:22;;;;;;;31.10;8.85;;;;;;;9.49;96.19;101834.03;5029608;28;20095;-67
2024/01/24 09:15:48;;;;;;;33.15;8.60;;;;;;;9.48;97.10;101821.59;5029477;28;20400;-67
2024/01/24 09:18:17;;;;;;;38.08;8.85;;;;;;;9.48;96.38;101809.03;5037390;28;20029;-67
2024/01/24 09:20:43;;;;;;;24.80;7.25;;;;;;;9.48;97.77;101808.19;5035115;28;20440;-67
2024/01/24 09:23:09;;;;;;;33.00;9.23;;;;;;;9.50;96.87;101823.22;5036039;28;20122;-67
2024/01/24 09:25:34;;;;;;;32.50;7.10;;;;;;;9.53;97.73;101854.41;5039119;28;20048;-67
2024/01/24 09:28:00;;;;;;;27.67;7.32;;;;;;;9.54;97.63;101834.69;5039703;28;20431;-67
2024/01/24 09:30:25;;;;;;;31.42;8.13;;;;;;;9.57;96.85;101839.88;5036627;28;20055;-67
2024/01/24 09:32:51;;;;;;;43.03;8.60;;;;;;;9.58;97.88;101865.78;5035009;28;20469;-68
2024/01/24 09:35:17;;;;;;;40.67;9.02;;;;;;;9.59;97.04;101881.81;5034109;28;20025;-67
2024/01/24 09:37:43;;;;;;;30.75;7.45;;;;;;;9.64;96.02;101880.69;5035043;28;20078;-67
2024/01/24 09:40:09;;;;;;;38.90;9.70;;;;;;;9.65;95.72;101888.66;5036228;28;20820;-68
2024/01/24 09:42:42;;;;;;;33.83;7.90;;;;;;;9.66;96.89;101893.06;5028784;28;20021;-66
2024/01/24 09:45:08;;;;;;;32.10;8.57;;;;;;;9.66;96.88;101901.13;5032325;28;20029;-67
2024/01/24 09:47:34;;;;;;;36.75;8.80;;;;;;;9.66;96.17;101901.13;5037572;28;20144;-66
2024/01/24 09:50:04;;;;;;;41.47;9.55;;;;;;;9.66;95.67;101897.56;5029959;28;20086;-66
2024/01/24 09:52:32;;;;;;;35.15;7.97;;;;;;;9.65;94.67;101890.47;5035408;28;20319;-66
2024/01/24 09:55:00;;;;;;;34.60;7.85;;;;;;;9.64;96.26;101878.88;5036903;28;20040;-66
2024/01/24 09:57:27;;;;;;;32.75;7.75;;;;;;;9.64;96.01;101888.75;5034055;28;20060;-66
2024/01/24 09:59:53;;;;;;;30.17;7.28;;;;;;;9.61;96.63;101901.38;5036899;28;20457;-66
2024/01/24 10:02:18;;;;;;;38.78;9.75;;;;;;;9.61;95.85;101935.41;5036937;28;20021;-67
2024/01/24 10:04:44;;;;;;;34.13;8.52;;;;;;;9.61;95.81;101919.28;5032602;28;20036;-66
2024/01/24 10:07:10;;;;;;;29.85;8.43;;;;;;;9.62;95.00;101937.16;5031348;28;20033;-67
2024/01/24 10:09:35;;;;;;;34.55;8.40;;;;;;;9.63;95.51;101930.81;5034459;28;20021;-67
2024/01/24 10:12:01;;;;;;;36.28;9.85;;;;;;;9.65;94.30;101936.97;5032219;28;20128;-67
2024/01/24 10:14:27;;;;;;;33.85;8.57;;;;;;;9.68;94.57;101950.25;5035673;28;20040;-66
2024/01/24 10:16:53;;;;;;;31.23;9.13;;;;;;;9.69;95.32;101938.53;5029144;28;20041;-67
2024/01/24 10:19:23;;;;;;;34.40;8.27;;;;;;;9.77;93.82;101948.91;5031435;28;20021;-66
2024/01/24 10:21:49;;;;;;;38.58;9.23;;;;;;;9.79;92.66;101950.56;5028425;28;20037;-67
2024/01/24 10:24:14;;;;;;;35.30;8.43;;;;;;;9.83;93.28;101955.75;5029481;28;20018;-67
2024/01/24 10:26:39;;;;;;;41.85;8.60;;;;;;;9.87;92.64;101962.69;5032071;28;20298;-67
2024/01/24 10:29:07;;;;;;;35.15;7.53;;;;;;;9.89;92.46;101971.53;5032139;28;20027;-67
2024/01/24 10:31:32;;;;;;;34.38;8.30;;;;;;;9.93;90.98;101986.56;5033384;28;20038;-67
2024/01/24 10:33:57;;;;;;;34.08;8.57;;;;;;;9.94;91.11;101962.31;5034603;28;20039;-67
2024/01/24 10:36:23;;;;;;;36.47;8.52;;;;;;;9.96;91.45;101957.72;5035933;28;20048;-66
2024/01/24 10:38:53;;;;;;;35.92;8.23;;;;;;;9.96;90.47;101964.91;5032848;28;20483;-67
2024/01/24 10:41:22;;;;;;;38.10;8.75;;;;;;;9.98;88.71;101989.84;5035492;28;20036;-67
2024/01/24 10:43:50;;;;;;;31.33;8.02;;;;;;;10.00;89.96;101985.28;5036838;28;20455;-66
2024/01/24 10:46:15;;;;;;;31.73;9.02;;;;;;;10.02;89.44;101996.81;5033229;28;20445;-67
2024/01/24 10:48:41;;;;;;;41.63;9.02;;;;;;;10.03;90.21;101992.28;5034406;28;20073;-66
2024/01/24 10:51:07;;;;;;;33.70;7.25;;;;;;;10.03;88.43;101985.13;5027804;28;20039;-67
2024/01/24 10:53:34;;;;;;;34.25;8.82;;;;;;;10.07;87.90;101993.88;5058393;28;20024;-67
2024/01/24 10:56:01;;;;;;;28.92;7.97;;;;;;;10.07;87.15;101993.88;5028647;28;20033;-66
2024/01/24 10:58:28;;;;;;;33.67;8.13;;;;;;;10.08;88.11;101982.19;5036553;28;20063;-67
2024/01/24 11:00:54;;;;;;;30.80;7.47;;;;;;;10.08;87.53;101993.78;5026542;28;20491;-67
2024/01/24 11:03:19;;;;;;;33.80;7.85;;;;;;;10.09;86.93;101995.53;5031424;28;20100;-68
2024/01/24 11:05:52;;;;;;;32.55;7.15;;;;;;;10.09;87.79;102008.09;5027537;28;20030;-67
2024/01/24 11:08:29;;;;;;;29.02;8.00;;;;;;;10.11;88.10;102016.94;5049525;28;20034;-68
2024/01/24 11:10:58;;;;;;;31.38;7.63;;;;;;;10.12;87.01;102016.00;5031779;28;20021;-67